Time;durP1;ratioP1;P1;durP2;ratioP2;P2;SDS_P1;SDS_P2;PMS_P1;PMS_P2;Temp;Humidity;BMP_temperature;BMP_pressure;BME280_temperature;BME280_humidity;BME280_pressure;Samples;Min_cycle;Max_cycle;Signal;HPM_P1;HPM_P2
2023/07/02 00:02:23;;;;;;;9.30;6.00;;;19.10;99.90;;;;;;4841498;29;20399;-81
2023/07/02 00:04:50;;;;;;;8.07;5.70;;;19.10;99.90;;;;;;4839067;29;20038;-82
2023/07/02 00:07:20;;;;;;;9.10;6.60;;;19.00;99.90;;;;;;4823579;29;20049;-81
2023/07/02 00:09:48;;;;;;;9.05;6.70;;;18.90;99.90;;;;;;4838818;29;20042;-81
2023/07/02 00:12:17;;;;;;;9.25;6.65;;;18.90;99.90;;;;;;4839239;29;20053;-82
2023/07/02 00:14:44;;;;;;;10.30;6.72;;;19.00;99.90;;;;;;4842419;29;20052;-81
2023/07/02 00:17:13;;;;;;;9.68;7.05;;;19.20;99.90;;;;;;4842570;29;20054;-81
2023/07/02 00:19:41;;;;;;;8.60;7.20;;;19.20;99.90;;;;;;4843153;29;20046;-81
2023/07/02 00:22:08;;;;;;;43.42;7.70;;;19.20;99.90;;;;;;4842003;29;20257;-80
2023/07/02 00:24:37;;;;;;;11.30;6.45;;;19.10;99.90;;;;;;4840963;29;20054;-82
2023/07/02 00:27:05;;;;;;;11.27;6.47;;;19.00;99.90;;;;;;4842308;29;20524;-82
2023/07/02 00:29:33;;;;;;;12.05;6.40;;;19.10;99.90;;;;;;4838660;29;20061;-82
2023/07/02 00:32:00;;;;;;;9.88;6.72;;;19.10;99.90;;;;;;4848102;29;20046;-81
2023/07/02 00:34:28;;;;;;;9.10;6.90;;;19.00;99.90;;;;;;4865811;29;20042;-80
2023/07/02 00:36:55;;;;;;;10.00;6.93;;;19.00;99.90;;;;;;4848746;29;20136;-80
2023/07/02 00:39:22;;;;;;;9.95;7.07;;;19.10;99.90;;;;;;4845454;29;20480;-81
2023/07/02 00:41:51;;;;;;;9.85;7.13;;;19.10;99.90;;;;;;4843395;29;20046;-80
2023/07/02 00:44:19;;;;;;;8.68;6.38;;;19.10;99.90;;;;;;4849028;29;20538;-82
2023/07/02 00:46:46;;;;;;;9.43;6.93;;;19.10;99.90;;;;;;4825655;29;20422;-81
2023/07/02 00:49:14;;;;;;;10.15;7.10;;;19.10;99.90;;;;;;4842181;29;20080;-81
2023/07/02 00:51:42;;;;;;;10.63;7.07;;;19.10;99.90;;;;;;4824681;29;20061;-82
2023/07/02 00:54:10;;;;;;;10.25;7.53;;;19.10;99.90;;;;;;4825426;29;20049;-82
2023/07/02 00:56:37;;;;;;;10.07;7.13;;;19.20;99.90;;;;;;4825216;29;20041;-82
2023/07/02 00:59:06;;;;;;;12.18;6.88;;;19.10;99.90;;;;;;4825595;29;20129;-80
2023/07/02 01:01:37;;;;;;;9.80;6.43;;;19.00;99.90;;;;;;4827327;29;20046;-81
2023/07/02 01:04:09;;;;;;;9.07;6.32;;;19.00;99.90;;;;;;4839462;29;20045;-83
2023/07/02 01:06:40;;;;;;;9.80;6.70;;;18.90;99.90;;;;;;4835538;29;20468;-82
2023/07/02 01:09:08;;;;;;;9.00;6.72;;;18.90;99.90;;;;;;4825359;29;20450;-82
2023/07/02 01:11:41;;;;;;;9.77;7.20;;;18.80;99.90;;;;;;4841121;29;20068;-82
2023/07/02 01:14:13;;;;;;;10.18;6.50;;;18.80;99.90;;;;;;4839646;29;20064;-81
2023/07/02 01:16:44;;;;;;;9.68;6.68;;;18.80;99.90;;;;;;4865906;29;20125;-83
2023/07/02 01:19:18;;;;;;;9.40;6.07;;;18.80;99.90;;;;;;4858237;29;20058;-81
2023/07/02 01:21:48;;;;;;;10.43;6.68;;;18.80;99.90;;;;;;4841017;29;20066;-81
2023/07/02 01:24:16;;;;;;;11.93;7.45;;;18.80;99.90;;;;;;4824383;29;20525;-82
2023/07/02 01:26:43;;;;;;;8.80;6.55;;;18.70;99.90;;;;;;4839850;29;20050;-81
2023/07/02 01:29:16;;;;;;;7.82;6.25;;;18.60;99.90;;;;;;4816016;29;20495;-81
2023/07/02 01:31:43;;;;;;;8.80;6.28;;;18.70;99.90;;;;;;4822306;29;20039;-81
2023/07/02 01:34:13;;;;;;;10.27;7.10;;;18.70;99.90;;;;;;4823306;29;20038;-83
2023/07/02 01:36:41;;;;;;;9.82;6.47;;;18.70;99.90;;;;;;4821704;29;20054;-81
2023/07/02 01:39:10;;;;;;;11.05;6.65;;;18.70;99.90;;;;;;4822489;29;20068;-81
2023/07/02 01:41:50;;;;;;;10.27;6.65;;;18.80;99.90;;;;;;4822328;29;20411;-82
2023/07/02 01:44:17;;;;;;;9.25;6.75;;;18.80;99.90;;;;;;4817114;29;20049;-82
2023/07/02 01:46:48;;;;;;;11.75;6.65;;;18.80;99.90;;;;;;4840674;29;20045;-82
2023/07/02 01:49:16;;;;;;;9.27;6.32;;;18.80;99.90;;;;;;4825151;29;20073;-81
2023/07/02 01:51:46;;;;;;;9.13;6.55;;;18.80;99.90;;;;;;4840725;29;20046;-81
2023/07/02 01:54:15;;;;;;;11.32;7.10;;;18.80;99.90;;;;;;4840870;29;20106;-81
2023/07/02 01:56:43;;;;;;;9.25;6.43;;;18.80;99.90;;;;;;4842568;29;20046;-82
2023/07/02 01:59:11;;;;;;;9.85;7.00;;;18.80;99.90;;;;;;4824829;29;20050;-82
2023/07/02 02:01:40;;;;;;;8.55;6.50;;;18.70;99.90;;;;;;4818361;29;20081;-82
2023/07/02 02:04:08;;;;;;;9.38;6.65;;;18.60;99.90;;;;;;4824180;29;20047;-83
2023/07/02 02:06:35;;;;;;;9.07;6.57;;;18.50;99.90;;;;;;4808827;29;20058;-81
2023/07/02 02:09:04;;;;;;;11.00;6.57;;;18.60;99.90;;;;;;4806281;29;20047;-81
2023/07/02 02:11:35;;;;;;;10.95;6.72;;;18.50;99.90;;;;;;4825946;29;20050;-81
2023/07/02 02:14:02;;;;;;;9.73;6.70;;;18.40;99.90;;;;;;4826169;29;20145;-82
2023/07/02 02:16:30;;;;;;;10.30;6.97;;;18.50;99.90;;;;;;4827966;29;20292;-81
2023/07/02 02:18:58;;;;;;;11.45;6.63;;;18.50;99.90;;;;;;4807514;29;20054;-82
2023/07/02 02:21:25;;;;;;;8.93;6.20;;;18.50;99.90;;;;;;4811947;29;20039;-81
2023/07/02 02:23:52;;;;;;;9.73;6.50;;;18.50;99.90;;;;;;4846328;29;20034;-81
2023/07/02 02:26:21;;;;;;;8.90;5.47;;;18.50;99.90;;;;;;4843073;29;20133;-82
2023/07/02 02:28:50;;;;;;;12.77;6.57;;;18.50;99.90;;;;;;4830811;29;20049;-81
2023/07/02 02:31:18;;;;;;;10.45;6.70;;;18.40;99.90;;;;;;4860726;29;20042;-81
2023/07/02 02:33:48;;;;;;;12.25;7.63;;;18.40;99.90;;;;;;4841841;29;20050;-81
2023/07/02 02:36:17;;;;;;;10.00;6.82;;;18.40;99.90;;;;;;4841061;29;20042;-82
2023/07/02 02:38:45;;;;;;;7.55;6.07;;;18.40;99.90;;;;;;4841389;29;20510;-81
2023/07/02 02:41:12;;;;;;;11.05;7.07;;;18.40;99.90;;;;;;4827198;29;20038;-82
2023/07/02 02:43:44;;;;;;;8.32;6.82;;;18.40;99.90;;;;;;4822994;29;20051;-82
2023/07/02 02:46:21;;;;;;;9.60;5.78;;;18.50;99.90;;;;;;4824122;29;20060;-82
2023/07/02 02:48:48;;;;;;;9.02;6.57;;;18.50;99.90;;;;;;4823017;29;20042;-81
2023/07/02 02:51:16;;;;;;;13.60;6.40;;;18.40;99.90;;;;;;4826414;29;20094;-82
2023/07/02 02:53:43;;;;;;;11.48;6.25;;;18.30;99.90;;;;;;4831322;29;20422;-81
2023/07/02 02:56:11;;;;;;;8.50;6.18;;;18.30;99.90;;;;;;4830572;29;20402;-81
2023/07/02 02:58:38;;;;;;;9.88;6.57;;;18.30;99.90;;;;;;4830496;29;20136;-82
2023/07/02 03:01:10;;;;;;;8.95;6.82;;;18.30;99.90;;;;;;4822978;29;20057;-83
2023/07/02 03:03:44;;;;;;;9.85;6.43;;;18.30;99.90;;;;;;4824384;29;20133;-82
2023/07/02 03:06:14;;;;;;;8.70;6.50;;;18.30;99.90;;;;;;4829622;29;20064;-80
2023/07/02 03:08:42;;;;;;;11.70;6.78;;;18.40;99.90;;;;;;4845108;29;20042;-83
2023/07/02 03:11:09;;;;;;;10.88;6.90;;;18.40;99.90;;;;;;4844975;29;20057;-79
2023/07/02 03:13:36;;;;;;;10.57;6.60;;;18.40;99.90;;;;;;4830127;29;20077;-80
2023/07/02 03:16:04;;;;;;;10.32;6.15;;;18.50;99.90;;;;;;4848666;29;20050;-81
2023/07/02 03:18:31;;;;;;;9.30;6.65;;;18.60;99.90;;;;;;4855078;29;20060;-81
2023/07/02 03:21:00;;;;;;;12.07;7.07;;;18.50;99.90;;;;;;4849510;29;20050;-81
2023/07/02 03:23:28;;;;;;;11.38;7.00;;;18.40;99.90;;;;;;4847397;29;20046;-80
2023/07/02 03:25:55;;;;;;;16.52;7.68;;;18.30;99.90;;;;;;4840161;29;20141;-81
2023/07/02 03:28:23;;;;;;;10.90;6.63;;;18.40;99.90;;;;;;4836586;29;20050;-81
2023/07/02 03:30:50;;;;;;;11.68;6.88;;;18.50;99.90;;;;;;4820544;29;20042;-80
2023/07/02 03:33:18;;;;;;;10.27;6.55;;;18.60;99.90;;;;;;4821052;29;20049;-81
2023/07/02 03:35:45;;;;;;;9.00;6.88;;;18.60;99.90;;;;;;4805317;29;20046;-81
2023/07/02 03:38:14;;;;;;;9.70;7.13;;;18.80;99.90;;;;;;4839179;29;20042;-81
2023/07/02 03:40:42;;;;;;;11.63;7.10;;;18.90;99.90;;;;;;4823542;29;20407;-81
2023/07/02 03:43:09;;;;;;;10.15;6.38;;;18.90;99.90;;;;;;4838782;29;20053;-81
2023/07/02 03:45:36;;;;;;;11.77;6.75;;;19.00;99.90;;;;;;4840661;29;20053;-81
2023/07/02 03:48:04;;;;;;;8.82;6.43;;;19.10;99.90;;;;;;4839255;29;20498;-81
2023/07/02 03:50:32;;;;;;;9.43;6.32;;;19.30;99.90;;;;;;4838858;29;20045;-81
2023/07/02 03:52:59;;;;;;;8.65;5.95;;;19.40;99.90;;;;;;4839040;29;20050;-81
2023/07/02 03:55:28;;;;;;;9.98;6.47;;;19.50;99.90;;;;;;4839426;29;20042;-81
2023/07/02 03:57:55;;;;;;;9.23;6.18;;;19.60;99.90;;;;;;4822430;29;20050;-80
2023/07/02 04:00:23;;;;;;;9.35;6.38;;;19.60;99.90;;;;;;4838238;29;20050;-80
2023/07/02 04:02:51;;;;;;;12.25;6.78;;;19.90;99.90;;;;;;4839681;29;20102;-82
2023/07/02 04:05:19;;;;;;;11.30;6.35;;;20.40;99.90;;;;;;4839810;29;20038;-81
2023/07/02 04:07:47;;;;;;;9.52;6.47;;;20.90;99.90;;;;;;4823263;29;20050;-81
2023/07/02 04:10:14;;;;;;;9.57;6.45;;;21.30;99.90;;;;;;4839195;29;20038;-81
2023/07/02 04:12:44;;;;;;;10.68;6.32;;;21.30;99.90;;;;;;4839110;29;20042;-81
2023/07/02 04:15:11;;;;;;;9.88;6.35;;;20.90;99.90;;;;;;4838980;29;20050;-81
2023/07/02 04:17:39;;;;;;;9.82;7.05;;;20.50;99.90;;;;;;4822493;29;20045;-81
2023/07/02 04:20:08;;;;;;;8.15;6.50;;;20.50;99.90;;;;;;4838487;29;20062;-80
2023/07/02 04:22:35;;;;;;;8.10;6.63;;;20.50;99.90;;;;;;4839174;29;20090;-81
2023/07/02 04:25:03;;;;;;;14.18;7.15;;;20.60;99.90;;;;;;4838456;29;20046;-81
2023/07/02 04:27:30;;;;;;;11.07;7.07;;;20.80;99.90;;;;;;4839047;29;20054;-81
2023/07/02 04:29:59;;;;;;;10.30;7.07;;;21.30;99.90;;;;;;4852388;29;20052;-81
2023/07/02 04:32:26;;;;;;;9.00;5.88;;;22.70;99.90;;;;;;4847511;29;20040;-82
2023/07/02 04:34:54;;;;;;;10.65;6.82;;;24.20;99.90;;;;;;4861387;29;20124;-82
2023/07/02 04:37:21;;;;;;;12.98;5.93;;;25.50;99.90;;;;;;4853930;29;20061;-81
2023/07/02 04:39:49;;;;;;;10.50;5.50;;;26.40;99.90;;;;;;4842788;29;20042;-82
2023/07/02 04:42:16;;;;;;;9.43;6.13;;;27.40;99.90;;;;;;4838826;29;20530;-81
2023/07/02 04:44:44;;;;;;;9.20;6.28;;;28.30;99.90;;;;;;4838873;29;20057;-82
2023/07/02 04:47:13;;;;;;;11.55;6.20;;;29.20;99.90;;;;;;4838763;29;20410;-81
2023/07/02 04:49:40;;;;;;;8.60;6.25;;;30.10;99.90;;;;;;4838621;29;20038;-82
2023/07/02 04:52:08;;;;;;;8.75;6.35;;;30.90;99.90;;;;;;4838542;29;20050;-81
2023/07/02 04:54:35;;;;;;;9.93;7.88;;;31.60;99.90;;;;;;4822922;29;20114;-82
2023/07/02 04:57:02;;;;;;;10.90;7.30;;;31.60;99.90;;;;;;4846284;29;20091;-83
2023/07/02 04:59:30;;;;;;;12.75;8.45;;;32.10;99.90;;;;;;4833155;29;20053;-82
2023/07/02 05:01:57;;;;;;;12.35;7.90;;;32.60;99.90;;;;;;4826283;29;20042;-83
2023/07/02 05:04:26;;;;;;;10.93;8.45;;;33.40;99.90;;;;;;4842119;29;20052;-85
2023/07/02 05:06:54;;;;;;;11.93;7.68;;;33.80;99.90;;;;;;4841509;29;20038;-83
2023/07/02 05:09:21;;;;;;;9.40;7.20;;;34.30;99.90;;;;;;4841748;29;20741;-83
2023/07/02 05:11:49;;;;;;;12.38;7.47;;;34.40;99.90;;;;;;4841804;29;20069;-83
2023/07/02 05:14:16;;;;;;;10.05;8.43;;;34.80;99.90;;;;;;4844409;29;20046;-82
2023/07/02 05:16:43;;;;;;;10.05;8.23;;;35.10;99.90;;;;;;4842003;29;20050;-83
2023/07/02 05:19:11;;;;;;;13.02;8.98;;;35.00;99.90;;;;;;4838751;29;20057;-83
2023/07/02 05:21:40;;;;;;;12.48;9.30;;;35.00;99.90;;;;;;4856474;29;20042;-82
2023/07/02 05:24:08;;;;;;;12.10;9.50;;;34.90;99.90;;;;;;4869379;24;20053;-76
2023/07/02 05:26:36;;;;;;;14.25;9.55;;;35.10;99.90;;;;;;4839160;29;20174;-77
2023/07/02 05:29:05;;;;;;;11.75;9.40;;;35.20;99.90;;;;;;4840300;29;20515;-77
2023/07/02 05:31:34;;;;;;;12.65;8.88;;;35.10;99.90;;;;;;4840474;29;20050;-77
2023/07/02 05:34:01;;;;;;;11.02;8.50;;;35.50;99.90;;;;;;4840623;29;20038;-77
2023/07/02 05:36:28;;;;;;;11.20;7.95;;;35.30;99.90;;;;;;4840175;29;20410;-77
2023/07/02 05:38:57;;;;;;;10.45;8.07;;;35.30;99.90;;;;;;4840427;29;20419;-76
2023/07/02 05:41:30;;;;;;;8.25;7.43;;;35.80;99.90;;;;;;4839903;29;20532;-76
2023/07/02 05:43:57;;;;;;;8.68;7.03;;;36.00;99.90;;;;;;4820474;29;20050;-76
2023/07/02 05:46:25;;;;;;;7.65;6.65;;;35.70;99.90;;;;;;4822189;29;20048;-76
2023/07/02 05:48:55;;;;;;;7.43;6.55;;;36.10;99.90;;;;;;4805281;29;20133;-77
2023/07/02 05:51:23;;;;;;;8.18;6.50;;;36.00;99.90;;;;;;4821441;29;20504;-76
2023/07/02 05:53:51;;;;;;;10.57;7.70;;;36.40;99.90;;;;;;4822111;29;20077;-77
2023/07/02 05:56:20;;;;;;;10.00;7.32;;;36.40;99.90;;;;;;4821960;29;20494;-76
2023/07/02 05:58:49;;;;;;;28.45;10.32;;;36.70;99.90;;;;;;4821601;29;20054;-76
2023/07/02 06:01:17;;;;;;;8.98;7.30;;;36.80;99.90;;;;;;4824972;29;20067;-77
2023/07/02 06:03:45;;;;;;;8.35;7.18;;;36.10;99.90;;;;;;4840223;29;20046;-77
2023/07/02 06:06:12;;;;;;;9.52;8.20;;;35.50;99.90;;;;;;4823507;29;20098;-76
2023/07/02 06:08:40;;;;;;;8.48;7.13;;;35.30;99.90;;;;;;4830966;29;20045;-77
2023/07/02 06:11:07;;;;;;;8.82;7.47;;;35.90;99.90;;;;;;4845394;29;20046;-76
2023/07/02 06:13:36;;;;;;;8.68;7.18;;;36.10;99.90;;;;;;4842756;29;20076;-77
2023/07/02 06:16:04;;;;;;;8.60;6.03;;;35.40;99.90;;;;;;4840324;29;20042;-77
2023/07/02 06:18:31;;;;;;;10.57;6.97;;;35.50;99.90;;;;;;4839535;29;20050;-77
2023/07/02 06:20:59;;;;;;;7.88;6.90;;;35.50;99.90;;;;;;4839144;29;20065;-77
2023/07/02 06:23:26;;;;;;;8.23;7.28;;;34.90;99.90;;;;;;4839430;29;20045;-76
2023/07/02 06:25:58;;;;;;;9.77;6.60;;;33.80;99.90;;;;;;4839271;29;20391;-76
2023/07/02 06:28:30;;;;;;;8.30;6.43;;;33.00;99.90;;;;;;4826781;29;20080;-78
2023/07/02 06:30:59;;;;;;;10.50;7.10;;;31.50;99.90;;;;;;4841349;29;20038;-77
2023/07/02 06:33:26;;;;;;;8.07;6.07;;;30.10;99.90;;;;;;4841197;29;20052;-77
2023/07/02 06:35:54;;;;;;;8.30;6.35;;;28.80;99.90;;;;;;4854574;29;20414;-76
2023/07/02 06:38:21;;;;;;;13.73;7.18;;;27.90;99.90;;;;;;4839376;29;20053;-77
2023/07/02 06:40:51;;;;;;;10.88;7.00;;;27.40;99.90;;;;;;4838738;29;20326;-76
2023/07/02 06:43:19;;;;;;;10.60;8.57;;;26.80;99.90;;;;;;4839608;29;20138;-76
2023/07/02 06:45:46;;;;;;;9.65;7.75;;;26.40;99.90;;;;;;4839583;29;20049;-76
2023/07/02 06:48:17;;;;;;;10.05;7.07;;;26.40;99.90;;;;;;4839562;29;20053;-77
2023/07/02 06:50:46;;;;;;;10.85;7.68;;;26.40;99.90;;;;;;4838861;29;20061;-77
2023/07/02 06:53:13;;;;;;;10.50;7.60;;;26.30;99.90;;;;;;4839221;29;20444;-76
2023/07/02 06:55:55;;;;;;;10.20;6.90;;;26.30;99.90;;;;;;4823462;29;20065;-77
2023/07/02 06:58:26;;;;;;;11.13;8.40;;;26.30;99.90;;;;;;4823009;29;20137;-77
2023/07/02 07:00:53;;;;;;;36.20;28.27;;;26.20;99.90;;;;;;4823304;29;20089;-76
2023/07/02 07:03:22;;;;;;;13.57;9.90;;;26.20;99.90;;;;;;4843800;29;20054;-78
2023/07/02 07:05:50;;;;;;;12.18;8.98;;;26.30;99.90;;;;;;4844714;29;20102;-77
2023/07/02 07:08:17;;;;;;;9.63;7.97;;;26.20;99.90;;;;;;4842966;29;20046;-77
2023/07/02 07:10:45;;;;;;;12.45;9.43;;;26.00;99.90;;;;;;4838498;29;20129;-79
2023/07/02 07:13:13;;;;;;;11.48;9.10;;;25.90;99.90;;;;;;4839494;29;20049;-78
2023/07/02 07:15:41;;;;;;;12.98;8.50;;;25.90;99.90;;;;;;4838876;29;20042;-76
2023/07/02 07:18:10;;;;;;;10.57;9.05;;;25.80;99.90;;;;;;4838577;29;20148;-78
2023/07/02 07:20:40;;;;;;;10.38;9.23;;;25.90;99.90;;;;;;4837990;29;20304;-76
2023/07/02 07:23:08;;;;;;;8.57;7.20;;;26.40;99.90;;;;;;4822222;29;20065;-77
2023/07/02 07:25:38;;;;;;;9.05;6.97;;;27.10;99.90;;;;;;4822989;29;20054;-77
2023/07/02 07:28:06;;;;;;;8.95;7.72;;;27.20;99.90;;;;;;4822357;29;20073;-78
2023/07/02 07:30:33;;;;;;;14.13;9.70;;;27.40;99.90;;;;;;4856579;29;20566;-76
2023/07/02 07:33:01;;;;;;;10.35;7.88;;;27.80;99.90;;;;;;4846972;29;20050;-76
2023/07/02 07:35:31;;;;;;;11.25;8.48;;;27.80;99.90;;;;;;4837901;29;20495;-76
2023/07/02 07:38:00;;;;;;;10.63;8.13;;;28.20;99.90;;;;;;4838171;29;20079;-75
2023/07/02 07:40:28;;;;;;;9.63;8.05;;;28.90;99.90;;;;;;4838908;29;20317;-78
2023/07/02 07:42:55;;;;;;;13.98;10.40;;;29.60;99.90;;;;;;4821797;29;20444;-76
2023/07/02 07:45:23;;;;;;;12.15;9.60;;;28.60;99.90;;;;;;4840331;29;20562;-77
2023/07/02 07:47:50;;;;;;;11.65;8.35;;;28.40;99.90;;;;;;4841356;29;20567;-77
2023/07/02 07:50:18;;;;;;;10.05;8.75;;;28.50;99.90;;;;;;4840467;29;20045;-76
2023/07/02 07:52:45;;;;;;;9.95;8.43;;;28.50;99.90;;;;;;4822584;29;20509;-75
2023/07/02 07:55:14;;;;;;;14.43;10.80;;;28.50;99.90;;;;;;4838889;29;20102;-76
2023/07/02 07:57:42;;;;;;;14.75;10.93;;;28.60;99.90;;;;;;4838655;29;20188;-78
2023/07/02 08:00:11;;;;;;;11.32;9.68;;;28.80;99.90;;;;;;4837909;29;20129;-77
2023/07/02 08:02:46;;;;;;;11.70;9.80;;;29.00;99.90;;;;;;4838211;29;20042;-77
2023/07/02 08:05:14;;;;;;;11.77;9.95;;;28.70;99.90;;;;;;4821636;29;20110;-77
2023/07/02 08:07:43;;;;;;;11.63;9.23;;;28.90;99.90;;;;;;4838548;29;20048;-77
2023/07/02 08:10:11;;;;;;;10.68;9.38;;;29.10;99.90;;;;;;4837919;29;20054;-76
2023/07/02 08:12:40;;;;;;;11.88;8.18;;;28.90;99.90;;;;;;4837585;29;20061;-76
2023/07/02 08:15:08;;;;;;;10.30;8.60;;;29.00;99.90;;;;;;4838235;29;20042;-76
2023/07/02 08:17:36;;;;;;;10.52;8.10;;;28.70;99.90;;;;;;4837814;29;20152;-77
2023/07/02 08:20:09;;;;;;;13.23;8.57;;;28.60;99.90;;;;;;4821043;29;20057;-77
2023/07/02 08:22:36;;;;;;;9.90;8.35;;;28.80;99.90;;;;;;4838407;29;20352;-76
2023/07/02 08:25:04;;;;;;;9.93;8.07;;;29.10;99.90;;;;;;4837354;29;20061;-76
2023/07/02 08:27:32;;;;;;;10.05;8.02;;;29.20;99.90;;;;;;4837825;29;20054;-76
2023/07/02 08:30:00;;;;;;;10.85;9.70;;;28.90;99.90;;;;;;4835154;29;20144;-76
2023/07/02 08:32:28;;;;;;;9.52;8.02;;;28.70;99.90;;;;;;4856499;29;20038;-78
2023/07/02 08:34:55;;;;;;;10.05;8.55;;;29.00;99.90;;;;;;4858579;29;20052;-77
2023/07/02 08:37:23;;;;;;;11.85;10.13;;;28.90;99.90;;;;;;4861161;29;20045;-76
2023/07/02 08:39:51;;;;;;;11.10;9.88;;;29.00;99.90;;;;;;4861083;29;20053;-77
2023/07/02 08:42:19;;;;;;;12.88;10.30;;;29.20;99.90;;;;;;4860322;29;20129;-78
2023/07/02 08:44:49;;;;;;;11.23;9.90;;;29.10;99.90;;;;;;4825327;29;20293;-77
2023/07/02 08:47:19;;;;;;;11.60;8.98;;;28.90;99.90;;;;;;4822902;29;20047;-77
2023/07/02 08:49:48;;;;;;;10.88;8.52;;;29.10;99.90;;;;;;4806472;29;20046;-77
2023/07/02 08:52:16;;;;;;;9.50;8.50;;;29.40;99.90;;;;;;4821894;29;20133;-77
2023/07/02 08:54:44;;;;;;;10.90;9.25;;;29.70;99.90;;;;;;4822510;29;20505;-78
2023/07/02 08:57:11;;;;;;;9.68;8.68;;;29.10;99.90;;;;;;4822643;29;20050;-79
2023/07/02 08:59:39;;;;;;;12.57;9.85;;;29.20;99.90;;;;;;4822470;29;20562;-77
2023/07/02 09:02:08;;;;;;;12.05;9.13;;;29.40;99.90;;;;;;4832136;29;20130;-78
2023/07/02 09:04:37;;;;;;;11.35;8.50;;;29.40;99.90;;;;;;4841625;29;20042;-77
2023/07/02 09:07:06;;;;;;;10.02;8.77;;;29.20;99.90;;;;;;4840909;29;20073;-78
2023/07/02 09:09:34;;;;;;;11.60;9.95;;;29.00;99.90;;;;;;4841132;29;20064;-76
2023/07/02 09:12:04;;;;;;;13.55;12.15;;;28.90;99.90;;;;;;4840346;29;20069;-78
2023/07/02 09:14:32;;;;;;;16.08;12.73;;;28.80;99.90;;;;;;4823909;29;20045;-77
2023/07/02 09:17:04;;;;;;;14.23;11.48;;;28.80;99.90;;;;;;4840745;29;20122;-75
2023/07/02 09:19:32;;;;;;;15.07;11.73;;;28.80;99.90;;;;;;4824378;29;20142;-77
2023/07/02 09:22:01;;;;;;;11.98;10.77;;;29.00;99.90;;;;;;4840031;29;20046;-76
2023/07/02 09:24:30;;;;;;;12.77;11.32;;;29.30;99.90;;;;;;4840430;29;20538;-76
2023/07/02 09:26:59;;;;;;;15.27;10.38;;;29.60;99.90;;;;;;4840468;29;20503;-77
2023/07/02 09:29:28;;;;;;;12.18;10.73;;;29.50;99.90;;;;;;4850940;29;20055;-76
2023/07/02 09:31:56;;;;;;;12.40;11.10;;;29.60;99.90;;;;;;4858440;29;20036;-77
2023/07/02 09:34:29;;;;;;;14.60;10.43;;;29.90;99.90;;;;;;4859599;29;20041;-76
2023/07/02 09:36:57;;;;;;;11.40;9.63;;;30.40;99.90;;;;;;4858781;29;20050;-77
2023/07/02 09:39:29;;;;;;;14.68;12.48;;;30.00;99.90;;;;;;4842053;29;20321;-77
2023/07/02 09:41:57;;;;;;;14.68;12.63;;;30.20;99.90;;;;;;4858394;29;20053;-77
2023/07/02 09:44:29;;;;;;;13.38;11.98;;;30.30;99.90;;;;;;4846449;29;20430;-77
2023/07/02 09:47:03;;;;;;;13.50;11.77;;;30.10;99.90;;;;;;4840209;29;20042;-77
2023/07/02 09:49:34;;;;;;;13.25;11.75;;;29.70;99.90;;;;;;4840740;29;20114;-76
2023/07/02 09:52:03;;;;;;;17.50;14.43;;;29.40;99.90;;;;;;4839549;29;20061;-77
2023/07/02 09:54:32;;;;;;;12.57;10.45;;;29.40;99.90;;;;;;4840010;29;20129;-76
2023/07/02 09:57:00;;;;;;;13.13;11.35;;;29.30;99.90;;;;;;4823303;29;20175;-77
2023/07/02 09:59:28;;;;;;;16.65;11.98;;;29.20;99.90;;;;;;4839847;29;20038;-77
2023/07/02 10:01:57;;;;;;;16.00;14.20;;;29.80;99.90;;;;;;4822958;29;20050;-77
2023/07/02 10:04:26;;;;;;;13.88;12.40;;;30.40;99.90;;;;;;4840337;29;20103;-77
2023/07/02 10:06:56;;;;;;;12.20;10.57;;;30.50;99.90;;;;;;4841201;29;20114;-76
2023/07/02 10:09:37;;;;;;;13.00;11.57;;;30.50;99.90;;;;;;4847111;29;20144;-77
2023/07/02 10:12:17;;;;;;;13.93;11.75;;;30.30;99.90;;;;;;4850476;29;20074;-77
2023/07/02 10:14:45;;;;;;;13.80;12.18;;;29.90;99.90;;;;;;4840055;29;20045;-77
2023/07/02 10:17:25;;;;;;;13.55;12.10;;;29.30;99.90;;;;;;4840050;29;20054;-76
2023/07/02 10:19:53;;;;;;;13.63;10.23;;;29.10;99.90;;;;;;4839330;29;20042;-77
2023/07/02 10:22:21;;;;;;;12.98;10.95;;;29.00;99.90;;;;;;4840524;29;20045;-77
2023/07/02 10:25:00;;;;;;;15.73;11.52;;;28.80;99.90;;;;;;4839499;29;20050;-77
2023/07/02 10:27:36;;;;;;;13.90;10.93;;;28.90;99.90;;;;;;4840231;29;20176;-75
2023/07/02 10:30:05;;;;;;;12.88;11.32;;;28.90;99.90;;;;;;4855052;29;20043;-76
2023/07/02 10:32:35;;;;;;;14.05;11.93;;;29.00;99.90;;;;;;4846463;29;20038;-77
2023/07/02 10:35:04;;;;;;;14.38;11.73;;;29.00;99.90;;;;;;4857773;29;20061;-78
2023/07/02 10:37:38;;;;;;;12.23;10.93;;;29.30;99.90;;;;;;4842221;29;20054;-77
2023/07/02 10:40:09;;;;;;;13.40;11.02;;;29.70;99.90;;;;;;4857401;29;20056;-75
2023/07/02 10:42:46;;;;;;;12.70;11.40;;;29.70;99.90;;;;;;4841375;29;20053;-77
2023/07/02 10:45:14;;;;;;;14.02;11.80;;;29.80;99.90;;;;;;4857691;29;20045;-77
2023/07/02 10:47:42;;;;;;;14.32;12.07;;;30.00;99.90;;;;;;4857489;29;20137;-78
2023/07/02 10:50:17;;;;;;;15.45;13.13;;;30.10;99.90;;;;;;4856995;29;20071;-77
2023/07/02 10:52:44;;;;;;;13.73;12.33;;;30.50;99.90;;;;;;4857694;29;20068;-76
2023/07/02 10:55:18;;;;;;;11.85;10.38;;;30.70;99.90;;;;;;4857666;29;20486;-77
2023/07/02 10:57:46;;;;;;;10.70;9.60;;;30.90;99.90;;;;;;4857156;29;20510;-77
2023/07/02 11:00:14;;;;;;;12.23;10.95;;;30.80;99.90;;;;;;4856604;29;20049;-77
2023/07/02 11:02:42;;;;;;;13.02;11.63;;;30.60;99.90;;;;;;4843736;29;20042;-76
2023/07/02 11:05:12;;;;;;;13.43;11.32;;;30.10;99.90;;;;;;4839113;29;20049;-76
2023/07/02 11:07:40;;;;;;;11.13;9.98;;;29.90;99.90;;;;;;4839751;29;20087;-78
2023/07/02 11:10:08;;;;;;;11.32;10.10;;;29.80;99.90;;;;;;4822266;29;20615;-77
2023/07/02 11:12:37;;;;;;;11.23;9.95;;;29.90;99.90;;;;;;4838929;29;20149;-77
2023/07/02 11:15:12;;;;;;;11.40;9.65;;;30.10;99.90;;;;;;4822043;29;20701;-76
2023/07/02 11:17:41;;;;;;;11.93;10.68;;;30.20;99.90;;;;;;4822165;29;20049;-75
2023/07/02 11:20:09;;;;;;;13.80;10.45;;;30.10;99.90;;;;;;4838298;29;20049;-77
2023/07/02 11:22:38;;;;;;;11.70;10.20;;;30.30;99.90;;;;;;4839392;29;20042;-76
2023/07/02 11:25:13;;;;;;;12.80;11.50;;;30.40;99.90;;;;;;4838659;29;20050;-75
2023/07/02 11:27:43;;;;;;;11.63;9.85;;;30.10;99.90;;;;;;4838741;29;20080;-75
2023/07/02 11:30:11;;;;;;;12.88;10.65;;;29.60;99.90;;;;;;4854128;29;20093;-76
2023/07/02 11:32:49;;;;;;;12.57;9.90;;;29.20;99.90;;;;;;4857284;29;20121;-77
2023/07/02 11:35:17;;;;;;;11.70;10.27;;;29.30;99.90;;;;;;4856913;29;20053;-77
2023/07/02 11:37:46;;;;;;;11.40;9.40;;;29.70;99.90;;;;;;4856985;29;20046;-76
2023/07/02 11:40:14;;;;;;;11.65;9.85;;;29.60;99.90;;;;;;4856902;29;20478;-77
2023/07/02 11:42:43;;;;;;;13.18;11.77;;;29.60;99.90;;;;;;4840402;29;20048;-78
2023/07/02 11:45:11;;;;;;;13.95;10.75;;;29.70;99.90;;;;;;4840163;29;20114;-76
2023/07/02 11:47:39;;;;;;;13.07;9.95;;;29.90;99.90;;;;;;4842714;29;20058;-76
2023/07/02 11:50:07;;;;;;;11.70;10.50;;;29.70;99.90;;;;;;4827198;29;20046;-76
2023/07/02 11:52:35;;;;;;;14.88;11.20;;;29.40;99.90;;;;;;4826577;29;20070;-77
2023/07/02 11:55:02;;;;;;;12.18;10.63;;;29.30;99.90;;;;;;4838766;29;20046;-77
2023/07/02 11:57:30;;;;;;;15.57;13.18;;;29.00;99.90;;;;;;4838948;29;20050;-77
2023/07/02 12:00:01;;;;;;;17.83;15.02;;;28.80;99.90;;;;;;4837748;29;20468;-77
2023/07/02 12:02:28;;;;;;;14.38;12.05;;;28.40;99.90;;;;;;4819097;29;20050;-76
2023/07/02 12:04:56;;;;;;;14.07;12.30;;;28.00;99.90;;;;;;4820150;29;20049;-78
2023/07/02 12:07:25;;;;;;;17.50;14.27;;;27.50;99.90;;;;;;4820756;29;20066;-77
2023/07/02 12:09:52;;;;;;;19.10;14.05;;;27.30;99.90;;;;;;4818908;29;20058;-78
2023/07/02 12:12:21;;;;;;;14.18;12.55;;;27.10;99.90;;;;;;4819552;29;20042;-79
2023/07/02 12:14:49;;;;;;;15.23;12.20;;;27.00;99.90;;;;;;4818619;29;20104;-78
2023/07/02 12:17:17;;;;;;;12.90;11.18;;;26.70;99.90;;;;;;4820136;29;20051;-77
2023/07/02 12:19:45;;;;;;;12.73;11.27;;;26.90;99.90;;;;;;4819835;29;20042;-77
2023/07/02 12:22:15;;;;;;;12.57;11.27;;;27.20;99.90;;;;;;4820264;29;20107;-79
2023/07/02 12:24:42;;;;;;;12.65;10.13;;;27.70;99.90;;;;;;4818849;29;20078;-76
2023/07/02 12:27:10;;;;;;;9.60;8.40;;;28.00;99.90;;;;;;4820103;29;20515;-76
2023/07/02 12:29:39;;;;;;;12.10;9.43;;;28.10;99.90;;;;;;4826225;29;20045;-77
2023/07/02 12:32:07;;;;;;;8.32;7.43;;;28.20;99.90;;;;;;4856218;29;20267;-76
2023/07/02 12:34:36;;;;;;;10.43;8.68;;;28.30;99.90;;;;;;4857029;29;20042;-76
2023/07/02 12:37:04;;;;;;;9.85;8.55;;;28.40;99.90;;;;;;4856644;29;20490;-76
2023/07/02 12:39:32;;;;;;;11.95;8.88;;;28.50;99.90;;;;;;4840323;29;20049;-77
2023/07/02 12:42:00;;;;;;;12.43;10.38;;;28.80;99.90;;;;;;4856475;29;20524;-77
2023/07/02 12:44:27;;;;;;;11.05;8.98;;;28.90;99.90;;;;;;4844065;29;20499;-79
2023/07/02 12:46:54;;;;;;;10.27;9.18;;;29.10;99.90;;;;;;4821859;29;20053;-77